Terminal Aerodrome Forecast
Issued by NWS

Current Version | Previous Version | Text Only | Print | Product List | Glossary Off
Versions: 1 2 3 4 5 6 7 8 9 10 11 12 13 14 15 16 17 18 19 20 21 22 23

000
FTUS41 KRLX 011725
TAFCKB
TAF
KCKB 011725Z 0118/0218 27010KT P6SM BKN025
     FM011900 27009KT P6SM SCT030
     FM020800 00000KT 5SM BR SCT050
     FM020900 00000KT 1SM BR SCT050
     FM021200 00000KT 3SM BR SCT050
     FM021300 00000KT P6SM SCT110=

USA.gov is the U.S. government's official web portal to all federal, state and local government web resources and services.